createdAt,value
2024-03-11T00:00:55.535Z,28.50
2024-03-11T00:01:55.465Z,27.70
2024-03-11T00:02:55.498Z,28.20
2024-03-11T00:03:55.481Z,29.50
2024-03-11T00:04:55.438Z,31.90
2024-03-11T00:05:55.452Z,32.30
2024-03-11T00:06:55.401Z,27.30
2024-03-11T00:07:55.393Z,31.00
2024-03-11T00:08:55.399Z,28.50
2024-03-11T00:09:55.365Z,32.90
2024-03-11T00:10:55.429Z,28.10
2024-03-11T00:11:55.471Z,30.00
2024-03-11T00:12:55.338Z,32.50
2024-03-11T00:13:55.328Z,29.60
2024-03-11T00:14:55.326Z,29.50
2024-03-11T00:15:55.325Z,33.00
2024-03-11T00:16:55.298Z,30.70
2024-03-11T00:17:55.557Z,32.70
2024-03-11T00:18:55.277Z,31.00
2024-03-11T00:19:55.309Z,29.60
2024-03-11T00:20:55.264Z,32.30
2024-03-11T00:21:55.261Z,30.60
2024-03-11T00:22:55.225Z,31.40
2024-03-11T00:23:55.219Z,27.90
2024-03-11T00:24:55.207Z,28.60
2024-03-11T00:25:55.204Z,27.90
2024-03-11T00:26:55.206Z,29.90
2024-03-11T00:27:55.164Z,34.30
2024-03-11T00:28:55.164Z,30.80
2024-03-11T00:29:55.140Z,28.60
2024-03-11T00:30:55.178Z,31.70
2024-03-11T00:31:55.136Z,32.30
2024-03-11T00:32:55.183Z,31.70
2024-03-11T00:33:55.118Z,28.90
2024-03-11T00:34:55.160Z,29.30
2024-03-11T00:35:55.092Z,29.10
2024-03-11T00:36:55.118Z,30.30
2024-03-11T00:37:55.055Z,30.20
2024-03-11T00:38:55.108Z,29.10
2024-03-11T00:39:55.053Z,28.80
2024-03-11T00:40:55.024Z,30.00
2024-03-11T00:41:55.020Z,32.00
2024-03-11T00:42:55.048Z,31.50
2024-03-11T00:43:54.993Z,34.00
2024-03-11T00:44:55.008Z,33.30
2024-03-11T00:45:55.057Z,30.60
2024-03-11T00:46:54.971Z,31.10
2024-03-11T00:47:55.022Z,30.70
2024-03-11T00:48:54.982Z,30.40
2024-03-11T00:49:54.940Z,30.80
2024-03-11T00:50:54.994Z,29.70
2024-03-11T00:51:54.921Z,28.10
2024-03-11T00:52:54.896Z,32.80
2024-03-11T00:53:54.889Z,30.40
2024-03-11T00:54:54.888Z,30.60
2024-03-11T00:55:54.883Z,32.30
2024-03-11T00:56:54.903Z,28.90
2024-03-11T00:57:54.858Z,32.50
2024-03-11T00:58:54.837Z,32.20
2024-03-11T00:59:54.833Z,30.60
2024-03-11T01:00:54.864Z,31.70
2024-03-11T01:01:54.802Z,30.80
2024-03-11T01:02:54.841Z,31.20
2024-03-11T01:03:54.786Z,33.10
2024-03-11T01:04:54.789Z,31.70
2024-03-11T01:05:54.850Z,30.60
2024-03-11T01:07:04.116Z,31.50
2024-03-11T01:07:54.741Z,32.20
2024-03-11T01:08:54.746Z,35.10
2024-03-11T01:09:54.715Z,33.40
2024-03-11T01:10:54.781Z,30.10
2024-03-11T01:11:54.745Z,32.40
2024-03-11T01:12:54.671Z,33.50
2024-03-11T01:13:54.669Z,33.90
2024-03-11T01:14:54.719Z,31.60
2024-03-11T01:15:54.661Z,30.90
2024-03-11T01:16:54.663Z,30.90
2024-03-11T01:17:54.655Z,30.00
2024-03-11T01:18:54.642Z,31.80
2024-03-11T01:19:54.619Z,31.20
2024-03-11T01:20:54.634Z,29.70
2024-03-11T01:21:54.587Z,31.70
2024-03-11T01:22:54.603Z,29.70
2024-03-11T01:23:54.564Z,31.50
2024-03-11T01:24:54.553Z,30.50
2024-03-11T01:25:54.536Z,30.10
2024-03-11T01:26:54.536Z,30.40
2024-03-11T01:27:54.506Z,31.00
2024-03-11T01:28:54.550Z,29.70
2024-03-11T01:29:54.537Z,31.50
2024-03-11T01:30:54.490Z,29.80
2024-03-11T01:31:54.477Z,31.30
2024-03-11T01:32:54.617Z,31.70
2024-03-11T01:33:54.449Z,30.00
2024-03-11T01:34:54.452Z,32.40
2024-03-11T01:35:54.594Z,33.30
2024-03-11T01:36:54.431Z,31.80
2024-03-11T01:37:54.411Z,31.00
2024-03-11T01:38:54.416Z,30.40
2024-03-11T01:39:54.537Z,30.40
2024-03-11T01:40:54.381Z,33.20
2024-03-11T01:41:54.387Z,31.00
2024-03-11T01:42:54.384Z,30.00
2024-03-11T01:43:54.344Z,31.30
2024-03-11T01:44:54.408Z,30.20
2024-03-11T01:45:54.336Z,32.70
2024-03-11T01:46:54.321Z,32.40
2024-03-11T01:47:54.510Z,32.10
2024-03-11T01:48:54.322Z,30.60
2024-03-11T01:49:54.469Z,30.80
2024-03-11T01:50:54.365Z,29.50
2024-03-11T01:51:54.263Z,31.50
2024-03-11T01:52:54.250Z,32.50
2024-03-11T01:53:54.249Z,31.30
2024-03-11T01:54:54.227Z,33.40
2024-03-11T01:55:54.212Z,30.90
2024-03-11T01:56:54.266Z,29.50
2024-03-11T01:57:54.192Z,32.00
2024-03-11T01:58:54.184Z,32.40
2024-03-11T01:59:54.203Z,32.30
2024-03-11T02:00:54.195Z,32.90
2024-03-11T02:01:54.192Z,30.00
2024-03-11T02:02:54.188Z,31.40
2024-03-11T02:03:54.139Z,32.90
2024-03-11T02:04:54.298Z,30.20
2024-03-11T02:05:54.162Z,31.80
2024-03-11T02:06:54.108Z,35.40
2024-03-11T02:07:54.074Z,29.20
2024-03-11T02:08:54.126Z,30.80
2024-03-11T02:09:54.090Z,31.40
2024-03-11T02:10:54.147Z,33.70
2024-03-11T02:11:54.154Z,31.40
2024-03-11T02:12:54.055Z,30.50
2024-03-11T02:13:54.015Z,31.40
2024-03-11T02:14:54.084Z,31.20
2024-03-11T02:15:53.997Z,33.80
2024-03-11T02:16:54.014Z,33.10
2024-03-11T02:17:54.067Z,32.60
2024-03-11T02:18:53.965Z,32.00
2024-03-11T02:19:53.995Z,32.00
2024-03-11T02:20:53.997Z,29.80
2024-03-11T02:21:53.931Z,30.40
2024-03-11T02:22:54.076Z,32.10
2024-03-11T02:23:53.924Z,31.90
2024-03-11T02:24:53.939Z,34.40
2024-03-11T02:25:53.891Z,30.70
2024-03-11T02:26:53.898Z,31.10
2024-03-11T02:27:53.921Z,29.70
2024-03-11T02:28:53.854Z,30.50
2024-03-11T02:29:53.860Z,30.40
2024-03-11T02:30:53.872Z,30.60
2024-03-11T02:31:53.812Z,30.50
2024-03-11T02:32:53.948Z,32.90
2024-03-11T02:33:53.795Z,28.20
2024-03-11T02:34:53.773Z,31.50
2024-03-11T02:35:53.863Z,29.60
2024-03-11T02:36:53.758Z,31.50
2024-03-11T02:37:53.746Z,31.60
2024-03-11T02:38:53.784Z,33.00
2024-03-11T02:39:53.744Z,30.30
2024-03-11T02:40:53.713Z,30.90
2024-03-11T02:41:53.740Z,35.00
2024-03-11T02:42:53.700Z,30.70
2024-03-11T02:43:53.695Z,31.60
2024-03-11T02:44:53.680Z,31.70
2024-03-11T02:45:53.653Z,30.30
2024-03-11T02:46:53.661Z,32.70
2024-03-11T02:47:53.736Z,30.70
2024-03-11T02:48:53.648Z,33.70
2024-03-11T02:49:53.608Z,32.50
2024-03-11T02:50:53.711Z,28.20
2024-03-11T02:51:53.598Z,34.10
2024-03-11T02:52:53.586Z,28.90
2024-03-11T02:53:53.612Z,29.40
2024-03-11T02:54:53.557Z,30.00
2024-03-11T02:55:53.566Z,31.40
2024-03-11T02:56:53.552Z,30.50
2024-03-11T02:57:53.530Z,30.80
2024-03-11T02:58:53.510Z,31.40
2024-03-11T02:59:53.522Z,32.20
2024-03-11T03:00:53.502Z,30.10
2024-03-11T03:01:53.492Z,31.10
2024-03-11T03:02:53.951Z,31.20
2024-03-11T03:03:53.467Z,30.40
2024-03-11T03:04:53.460Z,27.80
2024-03-11T03:05:53.471Z,32.80
2024-03-11T03:06:53.439Z,31.70
2024-03-11T03:07:53.436Z,34.70
2024-03-11T03:08:53.463Z,32.80
2024-03-11T03:09:53.411Z,29.50
2024-03-11T03:10:53.421Z,28.70
2024-03-11T03:11:53.450Z,29.30
2024-03-11T03:12:53.357Z,30.80
2024-03-11T03:13:53.358Z,36.50
2024-03-11T03:14:53.428Z,31.50
2024-03-11T03:15:53.342Z,30.50
2024-03-11T03:16:53.320Z,31.20
2024-03-11T03:17:53.378Z,29.70
2024-03-11T03:18:53.302Z,31.50
2024-03-11T03:19:53.277Z,28.50
2024-03-11T03:20:53.382Z,32.90
2024-03-11T03:21:53.264Z,30.60
2024-03-11T03:22:53.262Z,31.10
2024-03-11T03:23:53.300Z,31.80
2024-03-11T03:24:53.244Z,36.30
2024-03-11T03:25:53.231Z,32.50
2024-03-11T03:26:53.253Z,30.30
2024-03-11T03:27:53.190Z,31.20
2024-03-11T03:28:53.194Z,29.20
2024-03-11T03:29:53.202Z,31.30
2024-03-11T03:30:53.189Z,30.00
2024-03-11T03:31:53.170Z,33.70
2024-03-11T03:32:53.216Z,30.60
2024-03-11T03:33:53.132Z,31.00
2024-03-11T03:34:53.123Z,28.70
2024-03-11T03:35:53.134Z,31.30
2024-03-11T03:36:53.105Z,28.20
2024-03-11T03:37:53.090Z,27.90
2024-03-11T03:38:53.180Z,32.40
2024-03-11T03:39:53.081Z,32.70
2024-03-11T03:40:53.060Z,32.30
2024-03-11T03:41:53.104Z,33.70
2024-03-11T03:42:53.034Z,32.50
2024-03-11T03:43:53.026Z,32.80
2024-03-11T03:44:53.083Z,30.70
2024-03-11T03:45:53.011Z,28.70
2024-03-11T03:46:52.996Z,29.90
2024-03-11T03:47:53.094Z,35.40
2024-03-11T03:48:52.997Z,31.30
2024-03-11T03:49:52.968Z,31.90
2024-03-11T03:50:53.056Z,31.10
2024-03-11T03:51:52.943Z,28.90
2024-03-11T03:52:52.928Z,30.10
2024-03-11T03:53:52.957Z,28.30
2024-03-11T03:54:52.945Z,29.40
2024-03-11T03:55:52.917Z,30.00
2024-03-11T03:56:52.907Z,31.60
2024-03-11T03:57:52.877Z,30.90
2024-03-11T03:58:52.861Z,32.10
2024-03-11T03:59:52.871Z,29.60
2024-03-11T04:00:52.851Z,28.40
2024-03-11T04:01:52.821Z,33.10
2024-03-11T04:02:52.918Z,33.40
2024-03-11T04:03:52.809Z,33.80
2024-03-11T04:04:52.795Z,30.00
2024-03-11T04:05:52.856Z,30.70
2024-03-11T04:06:52.770Z,29.60
2024-03-11T04:07:52.768Z,27.80
2024-03-11T04:08:52.811Z,31.10
2024-03-11T04:09:52.733Z,31.80
2024-03-11T04:10:52.792Z,32.20
2024-03-11T04:11:52.796Z,30.90
2024-03-11T04:12:52.702Z,29.30
2024-03-11T04:13:52.756Z,27.30
2024-03-11T04:14:52.769Z,29.60
2024-03-11T04:15:52.676Z,32.70
2024-03-11T04:16:52.698Z,29.20
2024-03-11T04:17:52.786Z,28.60
2024-03-11T04:18:52.636Z,29.60
2024-03-11T04:19:52.631Z,28.50
2024-03-11T04:20:52.666Z,31.10
2024-03-11T04:21:52.601Z,31.10
2024-03-11T04:22:52.742Z,28.90
2024-03-11T04:23:52.706Z,30.20
2024-03-11T04:24:52.573Z,31.90
2024-03-11T04:25:52.560Z,30.00
2024-03-11T04:26:52.596Z,29.70
2024-03-11T04:27:52.541Z,30.60
2024-03-11T04:28:52.516Z,30.00
2024-03-11T04:29:52.548Z,29.00
2024-03-11T04:30:52.510Z,29.20
2024-03-11T04:31:52.501Z,29.50
2024-03-11T04:32:52.990Z,28.50
2024-03-11T04:33:52.480Z,32.80
2024-03-11T04:34:52.495Z,29.90
2024-03-11T04:35:52.569Z,30.00
2024-03-11T04:36:52.466Z,30.20
2024-03-11T04:37:52.443Z,30.20
2024-03-11T04:38:52.507Z,30.20
2024-03-11T04:39:52.441Z,32.80
2024-03-11T04:40:52.413Z,31.70
2024-03-11T04:41:52.471Z,28.30
2024-03-11T04:42:52.377Z,28.90
2024-03-11T04:43:52.361Z,34.40
2024-03-11T04:44:52.419Z,29.20
2024-03-11T04:45:52.365Z,30.60
2024-03-11T04:46:52.356Z,29.80
2024-03-11T04:47:52.657Z,28.40
2024-03-11T04:48:52.308Z,26.20
2024-03-11T04:49:52.323Z,29.70
2024-03-11T04:50:52.360Z,28.60
2024-03-11T04:51:52.277Z,28.90
2024-03-11T04:52:52.273Z,29.10
2024-03-11T04:53:52.316Z,28.80
2024-03-11T04:54:52.244Z,27.30
2024-03-11T04:55:52.234Z,30.30
2024-03-11T04:56:52.313Z,30.40
2024-03-11T04:57:52.213Z,28.10
2024-03-11T04:58:52.209Z,29.50
2024-03-11T04:59:52.203Z,27.30
2024-03-11T05:00:52.211Z,28.80
2024-03-11T05:01:52.167Z,31.50
2024-03-11T05:02:52.229Z,30.40
2024-03-11T05:03:52.145Z,29.40
2024-03-11T05:04:52.148Z,32.90
2024-03-11T05:05:52.170Z,30.50
2024-03-11T05:06:52.114Z,29.60
2024-03-11T05:07:52.145Z,30.30
2024-03-11T05:08:52.217Z,28.60
2024-03-11T05:09:52.096Z,28.00
2024-03-11T05:10:52.108Z,31.40
2024-03-11T05:11:52.121Z,32.30
2024-03-11T05:12:52.104Z,27.40
2024-03-11T05:13:52.092Z,29.60
2024-03-11T05:14:52.125Z,29.30
2024-03-11T05:15:52.027Z,31.70
2024-03-11T05:16:52.031Z,31.50
2024-03-11T05:17:52.335Z,29.20
2024-03-11T05:18:51.982Z,29.30
2024-03-11T05:19:51.965Z,31.40
2024-03-11T05:20:52.097Z,27.60
2024-03-11T05:21:51.960Z,31.70
2024-03-11T05:22:51.972Z,33.10
2024-03-11T05:23:51.967Z,32.00
2024-03-11T05:24:51.920Z,28.20
2024-03-11T05:25:51.914Z,30.00
2024-03-11T05:26:51.955Z,33.60
2024-03-11T05:27:52.062Z,29.90
2024-03-11T05:28:51.879Z,29.50
2024-03-11T05:29:51.907Z,27.80
2024-03-11T05:30:51.854Z,30.30
2024-03-11T05:31:51.836Z,28.70
2024-03-11T05:32:51.948Z,29.50
2024-03-11T05:33:51.819Z,31.30
2024-03-11T05:34:51.825Z,31.00
2024-03-11T05:35:51.863Z,29.50
2024-03-11T05:36:51.791Z,30.10
2024-03-11T05:37:51.785Z,27.70
2024-03-11T05:38:51.817Z,26.50
2024-03-11T05:39:51.759Z,29.60
2024-03-11T05:40:51.745Z,28.70
2024-03-11T05:41:51.761Z,28.20
2024-03-11T05:42:51.729Z,27.00
2024-03-11T05:43:51.705Z,29.20
2024-03-11T05:44:51.785Z,27.50
2024-03-11T05:45:51.691Z,30.70
2024-03-11T05:46:51.674Z,27.80
2024-03-11T05:47:51.839Z,27.10
2024-03-11T05:48:51.693Z,25.80
2024-03-11T05:49:51.655Z,31.00
2024-03-11T05:50:51.737Z,28.10
2024-03-11T05:51:51.631Z,28.30
2024-03-11T05:52:51.630Z,28.90
2024-03-11T05:53:51.666Z,28.30
2024-03-11T05:54:51.628Z,28.20
2024-03-11T05:55:51.596Z,27.70
2024-03-11T05:56:51.632Z,26.00
2024-03-11T05:57:51.572Z,26.30
2024-03-11T05:58:51.553Z,27.60
2024-03-11T05:59:51.567Z,31.80
2024-03-11T06:00:51.548Z,25.70
2024-03-11T06:01:51.518Z,28.70
2024-03-11T06:02:51.680Z,29.20
2024-03-11T06:03:51.494Z,27.30
2024-03-11T06:04:51.520Z,28.10
2024-03-11T06:05:51.563Z,26.80
2024-03-11T06:06:51.473Z,35.50
2024-03-11T06:07:51.460Z,29.50
2024-03-11T06:08:51.496Z,27.00
2024-03-11T06:09:51.421Z,28.30
2024-03-11T06:10:51.439Z,27.50
2024-03-11T06:11:51.549Z,27.70
2024-03-11T06:12:51.412Z,29.80
2024-03-11T06:13:51.375Z,27.90
2024-03-11T06:14:51.488Z,27.90
2024-03-11T06:15:51.367Z,27.70
2024-03-11T06:16:51.357Z,26.50
2024-03-11T06:17:51.444Z,27.40
2024-03-11T06:18:51.352Z,29.10
2024-03-11T06:19:51.326Z,30.40
2024-03-11T06:20:51.538Z,31.70
2024-03-11T06:21:51.297Z,27.00
2024-03-11T06:22:51.320Z,27.00
2024-03-11T06:23:51.307Z,27.20
2024-03-11T06:24:51.268Z,29.70
2024-03-11T06:25:51.282Z,28.20
2024-03-11T06:26:51.316Z,29.40
2024-03-11T06:27:51.244Z,27.40
2024-03-11T06:28:51.229Z,30.00
2024-03-11T06:29:51.317Z,30.30
2024-03-11T06:30:51.197Z,28.60
2024-03-11T06:31:51.243Z,26.10
2024-03-11T06:32:51.337Z,29.30
2024-03-11T06:33:51.194Z,27.60
2024-03-11T06:34:51.166Z,28.70
2024-03-11T06:35:51.268Z,28.30
2024-03-11T06:36:51.146Z,29.30
2024-03-11T06:37:51.118Z,27.80
2024-03-11T06:38:51.149Z,27.00
2024-03-11T06:39:51.133Z,25.70
2024-03-11T06:40:51.119Z,28.00
2024-03-11T06:41:51.134Z,28.10
2024-03-11T06:42:51.061Z,26.20
2024-03-11T06:43:51.083Z,27.50
2024-03-11T06:44:51.113Z,28.50
2024-03-11T06:45:51.044Z,29.50
2024-03-11T06:46:51.015Z,27.10
2024-03-11T06:47:51.082Z,27.50
2024-03-11T06:48:51.283Z,29.10
2024-03-11T06:49:50.993Z,27.50
2024-03-11T06:50:51.003Z,29.70
2024-03-11T06:51:50.978Z,27.80
2024-03-11T06:52:50.960Z,26.90
2024-03-11T06:53:50.943Z,25.80
2024-03-11T06:54:50.933Z,30.40
2024-03-11T06:55:50.966Z,30.80
2024-03-11T06:56:50.954Z,25.40
2024-03-11T06:57:50.896Z,28.40
2024-03-11T06:58:50.927Z,25.50
2024-03-11T06:59:50.899Z,28.70
2024-03-11T07:00:50.889Z,28.80
2024-03-11T07:01:50.869Z,27.20
2024-03-11T07:02:50.907Z,27.40
2024-03-11T07:03:50.829Z,26.80
2024-03-11T07:04:51.013Z,27.80
2024-03-11T07:05:50.829Z,29.00
2024-03-11T07:06:50.799Z,31.10
2024-03-11T07:07:50.796Z,27.50
2024-03-11T07:08:50.798Z,25.50
2024-03-11T07:09:50.773Z,30.70
2024-03-11T07:10:50.778Z,25.20
2024-03-11T07:11:50.758Z,25.00
2024-03-11T07:12:50.753Z,28.00
2024-03-11T07:13:50.719Z,27.30
2024-03-11T07:14:50.764Z,27.10
2024-03-11T07:15:50.703Z,27.80
2024-03-11T07:16:50.688Z,27.60
2024-03-11T07:17:50.720Z,27.10
2024-03-11T07:18:50.705Z,26.90
2024-03-11T07:19:50.671Z,30.50
2024-03-11T07:20:50.680Z,28.10
2024-03-11T07:21:50.633Z,27.90
2024-03-11T07:22:50.631Z,25.50
2024-03-11T07:23:50.615Z,25.50
2024-03-11T07:24:50.600Z,27.90
2024-03-11T07:25:50.655Z,25.30
2024-03-11T07:26:50.624Z,29.00
2024-03-11T07:27:50.594Z,25.70
2024-03-11T07:28:50.585Z,26.50
2024-03-11T07:29:50.560Z,25.20
2024-03-11T07:30:50.567Z,29.10
2024-03-11T07:31:50.566Z,26.20
2024-03-11T07:32:50.535Z,24.70
2024-03-11T07:33:50.500Z,29.90
2024-03-11T07:34:50.490Z,25.20
2024-03-11T07:35:50.484Z,25.40
2024-03-11T07:36:50.468Z,30.20
2024-03-11T07:37:50.515Z,26.40
2024-03-11T07:38:50.650Z,24.40
2024-03-11T07:39:50.435Z,26.20
2024-03-11T07:40:50.425Z,23.80
2024-03-11T07:41:50.419Z,26.10
2024-03-11T07:42:50.424Z,25.30
2024-03-11T07:43:50.402Z,28.80
2024-03-11T07:44:50.451Z,25.00
2024-03-11T07:45:50.386Z,25.60
2024-03-11T07:46:50.370Z,26.50
2024-03-11T07:47:50.430Z,26.80
2024-03-11T07:48:50.348Z,26.90
2024-03-11T07:49:50.349Z,28.90
2024-03-11T07:50:50.407Z,31.10
2024-03-11T07:51:50.362Z,26.00
2024-03-11T07:52:50.304Z,29.80
2024-03-11T07:53:50.292Z,26.00
2024-03-11T07:54:50.287Z,28.40
2024-03-11T07:55:50.270Z,26.10
2024-03-11T07:56:50.298Z,26.00
2024-03-11T07:57:50.238Z,24.80
2024-03-11T07:58:50.270Z,23.60
2024-03-11T07:59:50.236Z,24.40
2024-03-11T08:00:50.253Z,24.60
2024-03-11T08:01:50.200Z,24.90
2024-03-11T08:02:50.206Z,26.90
2024-03-11T08:03:50.242Z,26.80
2024-03-11T08:04:51.555Z,25.90
2024-03-11T08:05:50.171Z,24.80
2024-03-11T08:06:50.158Z,25.40
2024-03-11T08:07:50.134Z,24.40
2024-03-11T08:08:50.136Z,24.90
2024-03-11T08:09:50.160Z,26.40
2024-03-11T08:10:50.098Z,25.10
2024-03-11T08:11:50.107Z,22.80
2024-03-11T08:12:50.096Z,24.60
2024-03-11T08:13:50.064Z,26.50
2024-03-11T08:14:50.074Z,26.20
2024-03-11T08:15:50.751Z,24.00
2024-03-11T08:16:50.094Z,23.90
2024-03-11T08:17:50.046Z,24.20
2024-03-11T08:18:50.036Z,26.70
2024-03-11T08:19:50.021Z,23.30
2024-03-11T08:20:50.023Z,26.30
2024-03-11T08:21:50.012Z,26.50
2024-03-11T08:22:50.193Z,26.90
2024-03-11T08:23:49.952Z,25.10
2024-03-11T08:24:49.964Z,24.60
2024-03-11T08:25:49.941Z,25.90
2024-03-11T08:26:49.979Z,24.50
2024-03-11T08:27:49.911Z,27.70
2024-03-11T08:28:49.918Z,24.90
2024-03-11T08:29:49.881Z,25.30
2024-03-11T08:30:49.887Z,30.10
2024-03-11T08:31:49.857Z,23.10
2024-03-11T08:32:49.946Z,26.10
2024-03-11T08:33:49.852Z,25.60
2024-03-11T08:34:49.839Z,24.70
2024-03-11T08:35:49.833Z,24.00
2024-03-11T08:36:49.827Z,24.10
2024-03-11T08:37:49.809Z,26.10
2024-03-11T08:38:50.686Z,25.80
2024-03-11T08:39:49.789Z,25.70
2024-03-11T08:40:49.778Z,23.80
2024-03-11T08:41:49.774Z,22.80
2024-03-11T08:42:49.752Z,22.80
2024-03-11T08:43:49.741Z,23.90
2024-03-11T08:44:49.795Z,26.30
2024-03-11T08:45:49.740Z,25.30
2024-03-11T08:46:49.758Z,25.80
2024-03-11T08:47:49.743Z,26.20
2024-03-11T08:48:49.719Z,26.40
2024-03-11T08:49:49.665Z,24.40
2024-03-11T08:50:49.719Z,23.60
2024-03-11T08:51:49.648Z,26.50
2024-03-11T08:52:49.783Z,24.20
2024-03-11T08:53:49.617Z,25.20
2024-03-11T08:54:49.619Z,24.70
2024-03-11T08:55:49.609Z,24.70
2024-03-11T08:56:49.640Z,25.30
2024-03-11T08:57:49.580Z,25.30
2024-03-11T08:58:49.581Z,23.60
2024-03-11T08:59:49.669Z,23.20
2024-03-11T09:00:49.585Z,25.70
2024-03-11T09:01:49.562Z,23.10
2024-03-11T09:02:49.548Z,24.00
2024-03-11T09:03:49.567Z,23.10
2024-03-11T09:04:49.506Z,25.10
2024-03-11T09:05:49.517Z,23.80
2024-03-11T09:06:49.537Z,23.40
2024-03-11T09:07:49.491Z,23.60
2024-03-11T09:08:52.718Z,25.40
2024-03-11T09:09:49.526Z,25.10
2024-03-11T09:10:49.430Z,23.60
2024-03-11T09:11:49.516Z,24.40
2024-03-11T09:12:49.476Z,27.50
2024-03-11T09:13:49.406Z,23.20
2024-03-11T09:14:49.433Z,25.40
2024-03-11T09:15:49.401Z,23.00
2024-03-11T09:16:49.366Z,23.20
2024-03-11T09:17:49.416Z,23.30
2024-03-11T09:18:49.384Z,22.90
2024-03-11T09:19:49.342Z,26.70
2024-03-11T09:20:49.355Z,24.40
2024-03-11T09:21:49.396Z,25.40
2024-03-11T09:22:49.336Z,23.60
2024-03-11T09:23:49.294Z,23.60
2024-03-11T09:24:49.304Z,23.00
2024-03-11T09:25:49.271Z,23.90
2024-03-11T09:26:49.289Z,24.00
2024-03-11T09:27:49.364Z,23.20
2024-03-11T09:28:49.245Z,25.80
2024-03-11T09:29:49.247Z,25.70
2024-03-11T09:30:49.301Z,25.90
2024-03-11T09:31:49.226Z,24.50
2024-03-11T09:32:49.248Z,24.40
2024-03-11T09:33:49.286Z,25.30
2024-03-11T09:34:49.182Z,24.50
2024-03-11T09:35:49.180Z,24.60
2024-03-11T09:36:49.293Z,23.00
2024-03-11T09:37:49.149Z,21.20
2024-03-11T09:38:49.166Z,24.80
2024-03-11T09:39:49.139Z,24.20
2024-03-11T09:40:49.167Z,22.30
2024-03-11T09:41:49.117Z,24.80
2024-03-11T09:42:49.527Z,24.80
2024-03-11T09:43:49.142Z,25.80
2024-03-11T09:44:49.077Z,25.40
2024-03-11T09:45:49.079Z,27.10
2024-03-11T09:46:49.047Z,27.30
2024-03-11T09:47:49.073Z,25.90
2024-03-11T09:48:49.057Z,26.30
2024-03-11T09:49:49.006Z,26.60
2024-03-11T09:50:49.027Z,21.50
2024-03-11T09:51:49.440Z,23.80
2024-03-11T09:52:49.011Z,23.80
2024-03-11T09:53:48.963Z,24.20
2024-03-11T09:54:49.008Z,25.90
2024-03-11T09:55:48.962Z,23.90
2024-03-11T09:56:49.000Z,24.30
2024-03-11T09:57:49.013Z,26.40
2024-03-11T09:58:48.925Z,23.90
2024-03-11T09:59:48.951Z,22.50
2024-03-11T10:00:49.027Z,22.90
2024-03-11T10:01:48.979Z,26.20
2024-03-11T10:02:48.906Z,25.80
2024-03-11T10:03:49.120Z,26.50
2024-03-11T10:04:48.862Z,23.70
2024-03-11T10:05:48.839Z,27.80
2024-03-11T10:06:48.926Z,26.90
2024-03-11T10:07:48.831Z,25.50
2024-03-11T10:08:48.838Z,24.10
2024-03-11T10:09:48.944Z,23.50
2024-03-11T10:10:48.854Z,21.90
2024-03-11T10:11:48.769Z,25.80
2024-03-11T10:12:48.868Z,23.90
2024-03-11T10:13:48.773Z,25.40
2024-03-11T10:14:48.771Z,26.60
2024-03-11T10:15:48.795Z,22.50
2024-03-11T10:16:48.738Z,25.20
2024-03-11T10:17:48.772Z,23.60
2024-03-11T10:18:48.715Z,24.10
2024-03-11T10:19:48.705Z,25.40
2024-03-11T10:20:48.724Z,25.50
2024-03-11T10:21:48.679Z,26.40
2024-03-11T10:22:48.802Z,26.00
2024-03-11T10:23:48.653Z,23.50
2024-03-11T10:24:50.030Z,22.50
2024-03-11T10:25:48.627Z,23.00
2024-03-11T10:26:48.652Z,26.30
2024-03-11T10:27:48.692Z,25.40
2024-03-11T10:28:48.594Z,22.90
2024-03-11T10:29:48.595Z,26.90
2024-03-11T10:30:48.666Z,25.60
2024-03-11T10:31:48.555Z,23.00
2024-03-11T10:32:48.607Z,24.60
2024-03-11T10:33:48.544Z,22.30
2024-03-11T10:34:48.545Z,24.20
2024-03-11T10:35:48.516Z,24.30
2024-03-11T10:36:51.284Z,23.10
2024-03-11T10:37:48.491Z,21.90
2024-03-11T10:38:48.513Z,25.50
2024-03-11T10:39:48.560Z,25.40
2024-03-11T10:40:48.457Z,25.90
2024-03-11T10:41:48.448Z,24.30
2024-03-11T10:42:48.511Z,22.50
2024-03-11T10:43:48.426Z,25.00
2024-03-11T10:44:48.432Z,23.60
2024-03-11T10:45:48.449Z,25.20
2024-03-11T10:46:48.450Z,23.10
2024-03-11T10:47:48.512Z,24.80
2024-03-11T10:48:48.521Z,26.00
2024-03-11T10:49:49.440Z,26.60
2024-03-11T10:50:48.426Z,23.90
2024-03-11T10:51:48.410Z,28.20
2024-03-11T10:52:48.366Z,22.80
2024-03-11T10:53:48.369Z,27.20
2024-03-11T10:54:58.211Z,23.10
2024-03-11T10:55:48.300Z,26.00
2024-03-11T10:56:49.834Z,22.10
2024-03-11T10:57:48.332Z,24.30
2024-03-11T10:58:48.300Z,26.00
2024-03-11T10:59:48.324Z,26.30
2024-03-11T11:00:48.380Z,24.80
2024-03-11T11:01:48.276Z,25.60
2024-03-11T11:02:48.289Z,25.90
2024-03-11T11:03:48.283Z,24.90
2024-03-11T11:04:48.248Z,25.30
2024-03-11T11:05:48.256Z,26.30
2024-03-11T11:06:48.259Z,23.20
2024-03-11T11:07:48.176Z,26.90
2024-03-11T11:08:48.228Z,26.70
2024-03-11T11:09:48.270Z,26.50
2024-03-11T11:10:48.287Z,25.00
2024-03-11T11:11:48.164Z,27.40
2024-03-11T11:12:48.222Z,25.60
2024-03-11T11:13:48.135Z,23.40
2024-03-11T11:14:48.127Z,24.00
2024-03-11T11:15:48.147Z,25.50
2024-03-11T11:16:48.090Z,27.10
2024-03-11T11:17:48.178Z,25.80
2024-03-11T11:18:48.098Z,26.90
2024-03-11T11:19:48.069Z,23.30
2024-03-11T11:20:48.060Z,25.90
2024-03-11T11:21:48.092Z,28.60
2024-03-11T11:22:48.022Z,26.30
2024-03-11T11:23:48.076Z,28.70
2024-03-11T11:24:48.093Z,28.30
2024-03-11T11:25:48.047Z,29.50
2024-03-11T11:26:48.013Z,26.80
2024-03-11T11:27:47.987Z,29.00
2024-03-11T11:28:47.960Z,28.50
2024-03-11T11:29:48.551Z,31.50
2024-03-11T11:30:47.984Z,28.10
2024-03-11T11:31:47.955Z,30.40
2024-03-11T11:32:47.963Z,28.30
2024-03-11T11:33:47.977Z,26.30
2024-03-11T11:34:47.953Z,27.70
2024-03-11T11:35:47.875Z,31.40
2024-03-11T11:36:47.912Z,31.00
2024-03-11T11:37:47.860Z,33.10
2024-03-11T11:38:47.854Z,29.50
2024-03-11T11:39:47.866Z,28.40
2024-03-11T11:40:47.835Z,30.30
2024-03-11T11:41:48.557Z,26.80
2024-03-11T11:42:47.828Z,32.20
2024-03-11T11:43:47.786Z,27.70
2024-03-11T11:44:47.803Z,27.60
2024-03-11T11:45:47.807Z,32.00
2024-03-11T11:46:47.778Z,30.30
2024-03-11T11:47:47.788Z,31.20
2024-03-11T11:48:47.792Z,28.40
2024-03-11T11:49:47.720Z,29.10
2024-03-11T11:50:47.723Z,29.50
2024-03-11T11:51:47.852Z,29.10
2024-03-11T11:52:48.524Z,30.50
2024-03-11T11:53:54.477Z,28.40
2024-03-11T11:54:47.789Z,29.00
2024-03-11T11:55:47.653Z,27.80
2024-03-11T11:56:47.673Z,26.50
2024-03-11T11:57:47.672Z,29.20
2024-03-11T11:58:47.633Z,29.80
2024-03-11T11:59:47.601Z,33.80
2024-03-11T12:00:47.641Z,27.10
2024-03-11T12:01:47.642Z,30.00
2024-03-11T12:02:47.634Z,27.10
2024-03-11T12:03:47.643Z,28.20
2024-03-11T12:04:47.563Z,29.00
2024-03-11T12:05:47.547Z,26.40
2024-03-11T12:06:47.565Z,30.20
2024-03-11T12:07:47.577Z,27.20
2024-03-11T12:08:47.527Z,24.50
2024-03-11T12:09:47.507Z,32.10
2024-03-11T12:10:47.493Z,32.50
2024-03-11T12:11:47.490Z,29.60
2024-03-11T12:12:47.526Z,27.00
2024-03-11T12:13:47.481Z,31.00
2024-03-11T12:14:47.500Z,30.40
2024-03-11T12:15:47.479Z,28.00
2024-03-11T12:16:47.466Z,26.90
2024-03-11T12:17:47.464Z,30.80
2024-03-11T12:18:47.435Z,29.40
2024-03-11T12:19:47.385Z,26.30
2024-03-11T12:20:47.418Z,28.10
2024-03-11T12:21:47.430Z,26.30
2024-03-11T12:22:47.357Z,29.50
2024-03-11T12:23:47.357Z,27.20
2024-03-11T12:24:47.412Z,29.90
2024-03-11T12:25:47.344Z,25.00
2024-03-11T12:26:47.346Z,25.70
2024-03-11T12:27:47.338Z,29.00
2024-03-11T12:28:47.289Z,27.50
2024-03-11T12:29:47.285Z,32.20
2024-03-11T12:30:47.326Z,27.90
2024-03-11T12:31:47.245Z,27.40
2024-03-11T12:32:47.388Z,26.30
2024-03-11T12:33:47.280Z,28.40
2024-03-11T12:34:47.223Z,26.80
2024-03-11T12:35:47.221Z,28.00
2024-03-11T12:36:47.256Z,27.80
2024-03-11T12:37:47.193Z,28.20
2024-03-11T12:38:47.233Z,26.40
2024-03-11T12:39:47.205Z,27.60
2024-03-11T12:40:47.175Z,28.00
2024-03-11T12:41:47.163Z,26.60
2024-03-11T12:42:47.208Z,26.90
2024-03-11T12:43:47.144Z,26.90
2024-03-11T12:44:47.133Z,25.10
2024-03-11T12:45:47.155Z,23.80
2024-03-11T12:46:47.141Z,23.30
2024-03-11T12:47:47.099Z,27.70
2024-03-11T12:48:47.094Z,27.90
2024-03-11T12:49:47.078Z,27.50
2024-03-11T12:50:47.109Z,27.80
2024-03-11T12:51:47.070Z,26.60
2024-03-11T12:52:47.039Z,27.00